Terminal Aerodrome Forecast
Issued by NWS

Home | Current Version | Previous Version | Text Only | Print | Product List | Glossary Off
Versions: 1 2 3 4 5 6 7 8 9 10 11 12 13 14 15 16

000
FTUS43 KICT 250500
TAFCNU
TAF
KCNU 250520Z 2506/2606 15008KT P6SM SCT200
     FM251300 18014KT P6SM SCT250
     FM251500 20019G27KT P6SM SCT250
     FM260200 17010KT P6SM SCT250=

USA.gov is the U.S. government's official web portal to all federal, state and local government web resources and services.